Rudderville, Tennessee
Current Conditions -  °F | °C
As of 6:53 AM on Sunday 23 Nov 2014 (Local Time) from KBNA Reporting Station
Overcast Overcast  
Wind Chill: 54°   Ceiling: 4500
Heat Index: 54°   Visibility: 10mi
Dew Point: 44°   Wind: 6mph
Humidity: 69%   Direction: 100°E
Pressure: 29.9"   Gusts: NA
Location:  35.8909°N, 86.9583°W
Report Text: KBNA 231253Z 10005KT 10SM SCT035 OVC045 12/07 A2990 RMK AO2 SLP123 T01220067
Loading
Personal Weather Stations






























Interactive Weather Map New forecast layout! Learn more

10-Day Weather Forecast

Advertisements
Track Severe Weather on mobile